Time;durP1;ratioP1;P1;durP2;ratioP2;P2;SDS_P1;SDS_P2;PMS_P1;PMS_P2;Temp;Humidity;BMP_temperature;BMP_pressure;BME280_temperature;BME280_humidity;BME280_pressure;Samples;Min_cycle;Max_cycle;Signal;HPM_P1;HPM_P2
2021/06/08 00:00:04;;;;;;;22.75;17.50;;;;;;;16.18;69.58;100593.03;5014613;28;20032;-56
2021/06/08 00:02:32;;;;;;;20.40;16.70;;;;;;;16.19;69.46;100588.66;5014980;28;20128;-56
2021/06/08 00:04:58;;;;;;;23.13;17.35;;;;;;;16.18;69.49;100592.13;5014132;28;20030;-56
2021/06/08 00:07:23;;;;;;;18.88;16.60;;;;;;;16.15;69.42;100590.41;5015269;28;20546;-56
2021/06/08 00:09:54;;;;;;;22.95;18.25;;;;;;;16.16;69.69;100589.53;5014831;28;20076;-56
2021/06/08 00:12:22;;;;;;;22.17;19.55;;;;;;;16.15;69.73;100595.63;5013359;28;20052;-56
2021/06/08 00:14:50;;;;;;;23.20;18.63;;;;;;;16.14;69.67;100592.13;5013313;28;20026;-56
2021/06/08 00:17:15;;;;;;;23.38;17.23;;;;;;;16.14;69.59;100592.13;5013057;28;20033;-56
2021/06/08 00:19:49;;;;;;;20.33;17.40;;;;;;;16.13;69.63;100593.00;5013345;28;20034;-56
2021/06/08 00:22:17;;;;;;;22.88;17.27;;;;;;;16.12;69.58;100593.00;5014815;28;20091;-56
2021/06/08 00:24:45;;;;;;;20.83;17.15;;;;;;;16.11;69.55;100588.63;5014637;28;20030;-56
2021/06/08 00:27:13;;;;;;;26.05;18.38;;;;;;;16.10;69.69;100600.84;5013182;28;20104;-56
2021/06/08 00:29:41;;;;;;;20.75;17.65;;;;;;;16.09;69.71;100596.50;5014348;28;20073;-56
2021/06/08 00:32:15;;;;;;;20.00;16.60;;;;;;;16.08;70.02;100584.28;4996320;28;20041;-56
2021/06/08 00:34:43;;;;;;;21.48;17.40;;;;;;;16.07;69.79;100592.09;5013545;28;20045;-56
2021/06/08 00:37:12;;;;;;;22.98;17.48;;;;;;;16.05;69.81;100592.13;5012828;28;20041;-56
2021/06/08 00:39:40;;;;;;;22.95;18.35;;;;;;;16.03;69.79;100590.38;5013606;28;20029;-56
2021/06/08 00:42:06;;;;;;;23.52;18.33;;;;;;;16.04;69.67;100602.59;5014100;28;20124;-56
2021/06/08 00:44:32;;;;;;;21.52;17.67;;;;;;;16.03;69.73;100598.22;5014004;28;20041;-56
2021/06/08 00:47:00;;;;;;;20.77;17.70;;;;;;;16.01;69.83;100592.97;5012663;28;20551;-56
2021/06/08 00:49:29;;;;;;;22.73;18.65;;;;;;;16.00;69.95;100599.06;5014183;28;20458;-56
2021/06/08 00:51:57;;;;;;;24.80;18.20;;;;;;;15.99;69.80;100589.47;5013977;28;20076;-56
2021/06/08 00:54:28;;;;;;;23.48;19.58;;;;;;;15.98;69.71;100600.81;5013763;28;20030;-56
2021/06/08 00:56:59;;;;;;;26.02;20.08;;;;;;;15.96;69.81;100598.19;5013915;28;20473;-56
2021/06/08 00:59:27;;;;;;;25.80;19.25;;;;;;;15.94;69.90;100597.31;5012433;28;20057;-56
2021/06/08 01:01:56;;;;;;;23.70;18.85;;;;;;;15.94;69.82;100597.31;5014030;28;20198;-56
2021/06/08 01:04:24;;;;;;;26.85;18.83;;;;;;;15.91;69.87;100597.31;5013823;28;20041;-56
2021/06/08 01:06:56;;;;;;;22.20;18.75;;;;;;;15.90;69.59;100602.53;5013800;28;20045;-56
2021/06/08 01:09:21;;;;;;;22.80;17.88;;;;;;;15.89;69.91;100601.66;5013240;28;20528;-56
2021/06/08 01:11:49;;;;;;;21.40;18.65;;;;;;;15.88;69.85;100601.66;5013640;28;20042;-56
2021/06/08 01:14:20;;;;;;;20.35;18.08;;;;;;;15.85;69.69;100597.31;5013435;28;20481;-56
2021/06/08 01:16:48;;;;;;;22.30;18.90;;;;;;;15.84;69.96;100595.53;5012525;28;20405;-56
2021/06/08 01:19:16;;;;;;;23.25;18.08;;;;;;;15.83;70.02;100599.84;5012345;28;20397;-56
2021/06/08 01:21:43;;;;;;;24.35;18.98;;;;;;;15.82;69.96;100598.09;5013569;28;20116;-56
2021/06/08 01:24:12;;;;;;;19.75;17.58;;;;;;;15.82;70.02;100592.03;5012401;28;20037;-56
2021/06/08 01:26:42;;;;;;;23.95;18.50;;;;;;;15.80;70.26;100597.22;5013599;28;20038;-56
2021/06/08 01:29:08;;;;;;;23.67;19.35;;;;;;;15.79;70.00;100594.63;5012198;28;20030;-56
2021/06/08 01:31:37;;;;;;;24.83;20.13;;;;;;;15.79;69.94;100597.25;5012256;28;20497;-56
2021/06/08 01:34:04;;;;;;;22.58;18.45;;;;;;;15.77;69.91;100598.97;5012339;28;20034;-56
2021/06/08 01:36:37;;;;;;;25.88;18.50;;;;;;;15.74;69.94;100602.44;5011846;28;20040;-56
2021/06/08 01:39:03;;;;;;;22.70;18.17;;;;;;;15.74;70.09;100607.69;5011979;28;20030;-56
2021/06/08 01:41:34;;;;;;;24.88;17.92;;;;;;;15.73;69.83;100602.44;5013446;28;20065;-56
2021/06/08 01:44:05;;;;;;;25.02;18.67;;;;;;;15.71;70.00;100606.81;5013503;28;20030;-56
2021/06/08 01:46:31;;;;;;;21.50;18.58;;;;;;;15.69;69.92;100604.16;5017432;28;20038;-56
2021/06/08 01:49:02;;;;;;;26.70;18.67;;;;;;;15.68;69.96;100605.03;5017169;28;20038;-56
2021/06/08 01:51:44;;;;;;;26.45;20.35;;;;;;;15.65;69.98;100607.63;5015623;28;20033;-56
2021/06/08 01:54:28;;;;;;;24.98;19.83;;;;;;;15.64;69.93;100605.91;5017553;28;20038;-56
2021/06/08 01:57:05;;;;;;;26.77;19.50;;;;;;;15.61;70.21;100622.44;5016020;28;20038;-56
2021/06/08 02:00:05;;;;;;;26.17;21.08;;;;;;;15.58;69.99;100617.19;5016852;28;20046;-56
2021/06/08 02:02:54;;;;;;;26.33;19.48;;;;;;;15.55;70.10;100613.69;5015895;28;20046;-56
2021/06/08 02:05:51;;;;;;;23.80;18.35;;;;;;;15.53;69.95;100613.69;5017206;28;20117;-56
2021/06/08 02:08:43;;;;;;;23.75;19.15;;;;;;;15.51;70.06;100611.06;5016773;28;20121;-54
2021/06/08 02:11:50;;;;;;;23.52;18.67;;;;;;;15.49;70.06;100610.16;4999826;28;20054;-54
2021/06/08 02:14:30;;;;;;;20.80;18.25;;;;;;;15.48;70.08;100615.41;5016357;28;20049;-54
2021/06/08 02:17:13;;;;;;;21.75;17.42;;;;;;;15.48;70.15;100607.56;5015476;28;20409;-54
2021/06/08 02:19:42;;;;;;;20.10;17.48;;;;;;;15.48;70.25;100607.56;5016645;28;20072;-54
2021/06/08 02:22:14;;;;;;;20.23;17.17;;;;;;;15.47;70.17;100609.31;5015491;28;20559;-54
2021/06/08 02:24:45;;;;;;;29.27;17.08;;;;;;;15.47;70.10;100608.44;5015277;28;20515;-54
2021/06/08 02:27:13;;;;;;;19.65;16.58;;;;;;;15.46;70.26;100614.50;5016347;28;20034;-55
2021/06/08 02:29:46;;;;;;;22.58;17.33;;;;;;;15.45;70.18;100611.03;5016591;28;20048;-55
2021/06/08 02:32:19;;;;;;;22.60;18.92;;;;;;;15.44;70.17;100606.69;5016386;28;20489;-56
2021/06/08 02:34:45;;;;;;;22.10;18.67;;;;;;;15.45;70.17;100611.03;5016696;28;20600;-55
2021/06/08 02:37:18;;;;;;;23.35;19.38;;;;;;;15.44;70.28;100614.53;5016328;28;20379;-56
2021/06/08 02:39:48;;;;;;;23.85;19.75;;;;;;;15.43;70.23;100618.00;5014867;28;20038;-56
2021/06/08 02:42:17;;;;;;;23.05;19.27;;;;;;;15.41;70.29;100617.13;5016406;28;20065;-56
2021/06/08 02:44:53;;;;;;;24.98;18.20;;;;;;;15.41;70.18;100616.25;5016308;28;20052;-55
2021/06/08 02:47:25;;;;;;;26.95;19.52;;;;;;;15.40;70.34;100619.72;5016164;28;20089;-56
2021/06/08 02:49:55;;;;;;;23.75;19.50;;;;;;;15.41;70.44;100618.88;5014797;28;20489;-55
2021/06/08 02:52:25;;;;;;;25.90;20.23;;;;;;;15.38;70.28;100617.97;5016336;28;20033;-56
2021/06/08 02:55:00;;;;;;;26.65;19.10;;;;;;;15.37;70.39;100625.78;5016432;28;20049;-54
2021/06/08 02:57:30;;;;;;;25.63;20.48;;;;;;;15.36;70.44;100616.19;4997566;28;20088;-55
2021/06/08 03:00:01;;;;;;;25.20;20.42;;;;;;;15.35;70.54;100627.50;5015672;28;20038;-56
2021/06/08 03:02:30;;;;;;;26.33;20.92;;;;;;;15.35;70.34;100624.91;4997903;28;20056;-54
2021/06/08 03:05:16;;;;;;;27.95;22.17;;;;;;;15.35;70.71;100627.50;5015920;28;20037;-54
2021/06/08 03:07:50;;;;;;;30.13;24.85;;;;;;;15.34;70.28;100620.53;4997942;28;20489;-54
2021/06/08 03:10:23;;;;;;;30.42;24.25;;;;;;;15.31;70.48;100621.41;5015983;28;20038;-56
2021/06/08 03:12:56;;;;;;;37.05;26.52;;;;;;;15.32;70.39;100624.91;5014122;28;20037;-56
2021/06/08 03:15:33;;;;;;;32.22;26.13;;;;;;;15.31;70.31;100626.63;5014639;28;20112;-54
2021/06/08 03:17:58;;;;;;;31.75;26.38;;;;;;;15.30;70.51;100624.88;5014633;28;20092;-54
2021/06/08 03:20:36;;;;;;;33.08;26.98;;;;;;;15.28;70.38;100628.34;5014335;28;20424;-56
2021/06/08 03:23:06;;;;;;;31.70;26.35;;;;;;;15.29;70.75;100622.28;5015462;28;20040;-55
2021/06/08 03:25:37;;;;;;;31.60;25.98;;;;;;;15.28;70.62;100631.81;5013918;28;20440;-55
2021/06/08 03:28:04;;;;;;;34.20;26.98;;;;;;;15.28;70.42;100630.97;5015020;28;20121;-54
2021/06/08 03:30:33;;;;;;;39.40;25.77;;;;;;;15.27;70.63;100632.69;5013971;28;20437;-55
2021/06/08 03:33:03;;;;;;;29.92;24.30;;;;;;;15.27;70.51;100629.22;5014417;28;20045;-54
2021/06/08 03:35:32;;;;;;;29.45;23.52;;;;;;;15.26;70.36;100627.47;5014781;28;20568;-54
2021/06/08 03:38:04;;;;;;;28.10;23.80;;;;;;;15.25;70.48;100633.56;5015150;28;20497;-55
2021/06/08 03:40:33;;;;;;;31.23;24.98;;;;;;;15.23;70.49;100634.41;5015353;28;20065;-54
2021/06/08 03:43:03;;;;;;;31.80;26.48;;;;;;;15.20;70.60;100626.56;5015425;28;20064;-54
2021/06/08 03:45:29;;;;;;;31.30;24.63;;;;;;;15.21;70.55;100623.09;5013826;28;20088;-54
2021/06/08 03:47:58;;;;;;;32.47;26.42;;;;;;;15.22;70.49;100629.19;5013548;28;20038;-55
2021/06/08 03:50:27;;;;;;;33.65;25.30;;;;;;;15.19;70.66;100631.78;5015259;28;20037;-54
2021/06/08 03:53:01;;;;;;;30.85;26.75;;;;;;;15.18;70.69;100628.28;5013463;28;20094;-54
2021/06/08 03:55:28;;;;;;;35.83;26.70;;;;;;;15.19;70.65;100627.41;5014162;28;20050;-54
2021/06/08 03:58:00;;;;;;;33.78;26.00;;;;;;;15.17;70.40;100628.28;5013985;28;20041;-54
2021/06/08 04:00:26;;;;;;;38.88;25.67;;;;;;;15.17;70.70;100623.94;5015072;28;20091;-54
2021/06/08 04:02:52;;;;;;;28.88;24.88;;;;;;;15.17;70.63;100626.56;5013401;28;20038;-55
2021/06/08 04:05:23;;;;;;;31.17;24.83;;;;;;;15.16;70.58;100626.53;4997150;28;20086;-55
2021/06/08 04:07:48;;;;;;;33.58;27.08;;;;;;;15.13;70.65;100632.63;5014645;28;20034;-55
2021/06/08 04:10:20;;;;;;;33.85;27.40;;;;;;;15.14;70.61;100636.97;5014460;28;20148;-55
2021/06/08 04:12:57;;;;;;;31.27;26.98;;;;;;;15.11;70.66;100629.13;5014463;28;20378;-54
2021/06/08 04:15:24;;;;;;;39.95;30.52;;;;;;;15.11;71.09;100634.34;5014649;28;20033;-54
2021/06/08 04:17:52;;;;;;;36.75;28.65;;;;;;;15.12;70.80;100629.97;5014420;28;20092;-54
2021/06/08 04:20:21;;;;;;;41.25;32.53;;;;;;;15.13;70.81;100627.41;5014309;28;20030;-54
2021/06/08 04:22:50;;;;;;;41.90;32.35;;;;;;;15.12;70.73;100625.66;5014409;28;20409;-54
2021/06/08 04:25:22;;;;;;;42.05;31.40;;;;;;;15.11;70.79;100623.00;5013395;28;20123;-54
2021/06/08 04:27:54;;;;;;;40.22;32.75;;;;;;;15.12;70.67;100620.44;5013421;28;20061;-54
2021/06/08 04:30:25;;;;;;;45.17;33.03;;;;;;;15.13;70.75;100626.50;5013036;28;20397;-54
2021/06/08 04:32:51;;;;;;;49.42;34.92;;;;;;;15.12;70.79;100629.97;5014795;28;20034;-54
2021/06/08 04:35:21;;;;;;;44.55;35.63;;;;;;;15.13;70.95;100626.50;5014288;28;20041;-56
2021/06/08 04:37:50;;;;;;;44.97;36.47;;;;;;;15.12;70.81;100638.69;5014279;28;20123;-56
2021/06/08 04:40:17;;;;;;;49.00;38.25;;;;;;;15.13;70.89;100635.22;5012511;28;20544;-56
2021/06/08 04:42:49;;;;;;;46.42;37.50;;;;;;;15.14;70.73;100626.53;5012874;28;20049;-56
2021/06/08 04:45:18;;;;;;;52.65;39.10;;;;;;;15.16;70.92;100631.75;5014368;28;20057;-56
2021/06/08 04:47:46;;;;;;;54.65;41.45;;;;;;;15.17;71.07;100628.28;5014021;28;20070;-55
2021/06/08 04:50:15;;;;;;;51.20;39.70;;;;;;;15.18;71.05;100635.25;5013984;28;20033;-56
2021/06/08 04:52:44;;;;;;;51.63;39.58;;;;;;;15.19;71.12;100635.25;5013935;28;20045;-56
2021/06/08 04:55:10;;;;;;;53.65;40.25;;;;;;;15.20;71.04;100639.63;5013906;28;20038;-56
2021/06/08 04:57:39;;;;;;;53.28;41.17;;;;;;;15.21;70.84;100625.69;4996221;28;20140;-56
2021/06/08 05:00:13;;;;;;;54.83;41.85;;;;;;;15.23;70.99;100634.41;5013978;28;20040;-56
2021/06/08 05:02:43;;;;;;;;;;;;;;;15.22;70.81;100630.06;5012719;28;20077;-56
2021/06/08 05:05:41;;;;;;;50.53;39.25;;;;;;;15.25;70.97;100630.94;5012290;28;19917;-56
2021/06/08 05:08:13;;;;;;;52.05;39.88;;;;;;;15.27;70.91;100631.84;5004368;28;20058;-56
2021/06/08 05:10:54;;;;;;;57.38;41.28;;;;;;;15.28;71.05;100628.34;5012774;28;20038;-56
2021/06/08 05:13:21;;;;;;;52.25;40.10;;;;;;;15.31;71.27;100625.78;5013746;28;20045;-56
2021/06/08 05:15:51;;;;;;;56.70;41.45;;;;;;;15.32;71.05;100632.75;5013659;28;20034;-56
2021/06/08 05:18:18;;;;;;;54.60;41.90;;;;;;;15.34;71.23;100629.25;5013727;28;20481;-56
2021/06/08 05:20:46;;;;;;;53.40;40.40;;;;;;;15.36;71.13;100639.69;5014860;28;20033;-56
2021/06/08 05:23:16;;;;;;;54.17;41.88;;;;;;;15.38;71.22;100640.59;5017725;28;20397;-56
2021/06/08 05:25:45;;;;;;;51.85;39.15;;;;;;;15.40;71.20;100640.63;5016899;28;20393;-56
2021/06/08 05:28:14;;;;;;;52.08;38.97;;;;;;;15.42;71.37;100641.47;5016413;28;20026;-55
2021/06/08 05:30:40;;;;;;;54.53;40.17;;;;;;;15.42;71.37;100642.38;5016151;28;20037;-56
2021/06/08 05:33:10;;;;;;;55.40;40.97;;;;;;;15.46;71.37;100645.84;5016976;28;20104;-56
2021/06/08 05:35:40;;;;;;;52.95;38.80;;;;;;;15.47;71.53;100645.88;5017149;28;20042;-56
2021/06/08 05:38:07;;;;;;;48.50;38.30;;;;;;;15.48;71.41;100637.19;5016549;28;20038;-56
2021/06/08 05:40:37;;;;;;;51.70;38.42;;;;;;;15.51;71.34;100647.63;5017162;28;20034;-56
2021/06/08 05:43:06;;;;;;;52.63;39.33;;;;;;;15.53;71.52;100645.91;5017462;28;20080;-56
2021/06/08 05:45:34;;;;;;;55.97;41.53;;;;;;;15.56;71.38;100645.06;5016752;28;20042;-56
2021/06/08 05:48:02;;;;;;;53.53;39.25;;;;;;;15.57;71.30;100653.75;5017015;28;20366;-55
2021/06/08 05:50:31;;;;;;;51.33;40.08;;;;;;;15.58;71.53;100650.28;5017152;28;20049;-56
2021/06/08 05:53:00;;;;;;;55.55;40.95;;;;;;;15.60;71.64;100651.16;5017418;28;20046;-56
2021/06/08 05:55:33;;;;;;;52.15;40.00;;;;;;;15.63;71.39;100653.81;5016872;28;20129;-55
2021/06/08 05:57:59;;;;;;;51.95;39.65;;;;;;;15.65;71.52;100657.25;5016052;28;20034;-56
2021/06/08 06:00:27;;;;;;;49.78;38.15;;;;;;;15.66;71.41;100659.00;4999267;28;20060;-56
2021/06/08 06:02:56;;;;;;;51.47;37.97;;;;;;;15.69;71.58;100656.41;5015741;28;20038;-56
2021/06/08 06:05:25;;;;;;;50.28;37.65;;;;;;;15.71;71.39;100659.91;5017253;28;20041;-56
2021/06/08 06:07:50;;;;;;;53.22;40.50;;;;;;;15.72;71.59;100656.44;5017103;28;20042;-55
2021/06/08 06:10:18;;;;;;;50.25;39.50;;;;;;;15.74;71.67;100665.16;5016646;28;20040;-56
2021/06/08 06:12:50;;;;;;;54.28;40.78;;;;;;;15.75;71.46;100664.31;5016746;28;20048;-56
2021/06/08 06:15:19;;;;;;;54.13;39.33;;;;;;;15.77;71.54;100661.69;5017287;28;20037;-56
2021/06/08 06:17:51;;;;;;;53.30;39.28;;;;;;;15.77;71.49;100665.19;5015951;28;20061;-56
2021/06/08 06:20:21;;;;;;;53.38;38.65;;;;;;;15.78;71.66;100664.31;5016779;28;20131;-55
2021/06/08 06:22:47;;;;;;;52.47;38.33;;;;;;;15.80;71.42;100667.78;5016501;28;20038;-56
2021/06/08 06:25:20;;;;;;;47.35;36.97;;;;;;;15.82;71.55;100658.22;5016512;28;20026;-56
2021/06/08 06:27:46;;;;;;;50.47;38.88;;;;;;;15.83;71.47;100670.44;5016827;28;20493;-56
2021/06/08 06:30:17;;;;;;;46.80;37.13;;;;;;;15.86;71.59;100671.34;5014879;28;20072;-56
2021/06/08 06:32:46;;;;;;;49.03;36.60;;;;;;;15.88;71.63;100669.59;5016750;28;20096;-56
2021/06/08 06:35:12;;;;;;;51.85;39.35;;;;;;;15.89;71.55;100666.13;5015376;28;20037;-56
2021/06/08 06:37:42;;;;;;;50.40;37.03;;;;;;;15.91;71.59;100661.78;5015076;28;20092;-56
2021/06/08 06:40:14;;;;;;;50.88;37.30;;;;;;;15.92;71.63;100672.22;5015029;28;20040;-56
2021/06/08 06:42:46;;;;;;;48.75;37.10;;;;;;;15.94;71.49;100672.25;5016164;28;20049;-56
2021/06/08 06:45:21;;;;;;;47.72;37.45;;;;;;;15.94;71.59;100670.50;5016439;28;20046;-56
2021/06/08 06:47:48;;;;;;;49.00;37.05;;;;;;;15.96;71.63;100675.75;5016138;28;20038;-56
2021/06/08 06:50:17;;;;;;;48.10;37.45;;;;;;;15.97;71.50;100674.88;5014950;28;20037;-56
2021/06/08 06:52:45;;;;;;;49.85;37.05;;;;;;;15.98;71.62;100667.03;5016236;28;20069;-56
2021/06/08 06:55:11;;;;;;;46.83;36.47;;;;;;;16.00;71.51;100674.03;5014476;28;20578;-56
2021/06/08 06:57:44;;;;;;;47.60;36.05;;;;;;;16.02;71.46;100678.38;5014291;28;20050;-56
2021/06/08 07:00:10;;;;;;;44.28;34.28;;;;;;;16.03;71.43;100667.06;5015617;28;20033;-56
2021/06/08 07:02:39;;;;;;;52.92;37.95;;;;;;;16.05;71.41;100670.56;5015831;28;20077;-56
2021/06/08 07:05:10;;;;;;;51.05;37.67;;;;;;;16.07;71.39;100674.06;5015333;28;20042;-56
2021/06/08 07:07:38;;;;;;;44.42;34.95;;;;;;;16.09;71.59;100677.53;5016285;28;20048;-56
2021/06/08 07:10:05;;;;;;;43.67;33.75;;;;;;;16.10;71.58;100676.69;5014904;28;20129;-56
2021/06/08 07:12:34;;;;;;;46.03;35.97;;;;;;;16.12;71.37;100680.16;5015396;28;20074;-56
2021/06/08 07:15:05;;;;;;;47.40;36.38;;;;;;;16.13;71.38;100681.03;5015804;28;20485;-56
2021/06/08 07:17:32;;;;;;;43.00;34.03;;;;;;;16.16;71.44;100680.16;5015611;28;20436;-56
2021/06/08 07:20:04;;;;;;;47.58;35.33;;;;;;;16.17;71.45;100676.69;5015475;28;20049;-55
2021/06/08 07:22:33;;;;;;;42.05;31.83;;;;;;;16.18;71.34;100681.03;5014532;28;20504;-55
2021/06/08 07:25:06;;;;;;;44.25;34.95;;;;;;;16.19;71.43;100682.78;5015212;28;20095;-54
2021/06/08 07:27:33;;;;;;;44.08;34.03;;;;;;;16.18;71.48;100684.53;5015585;28;20044;-55
2021/06/08 07:30:01;;;;;;;47.03;36.72;;;;;;;16.20;71.24;100680.16;5013954;28;20038;-55
2021/06/08 07:33:03;;;;;;;47.95;35.05;;;;;;;16.20;71.25;100681.94;5015284;28;20124;-54
2021/06/08 07:35:35;;;;;;;52.72;37.70;;;;;;;16.23;71.47;100681.94;5014390;28;20034;-55
2021/06/08 07:38:08;;;;;;;50.88;36.55;;;;;;;16.24;71.52;100683.69;5015403;28;20034;-56
2021/06/08 07:40:44;;;;;;;48.92;34.85;;;;;;;16.24;71.33;100681.94;5013728;28;20520;-56
2021/06/08 07:43:18;;;;;;;47.95;37.10;;;;;;;16.25;71.35;100672.34;5015102;28;20152;-56
2021/06/08 07:45:51;;;;;;;48.90;38.08;;;;;;;16.27;71.16;100675.84;5014877;28;20041;-56
2021/06/08 07:48:26;;;;;;;50.60;38.58;;;;;;;16.29;71.38;100674.97;5013985;28;20057;-56
2021/06/08 07:50:57;;;;;;;57.05;39.65;;;;;;;16.31;71.46;100682.81;5013681;28;20049;-56
2021/06/08 07:53:25;;;;;;;53.33;38.65;;;;;;;16.33;71.44;100677.63;5014988;28;20038;-56
2021/06/08 07:55:56;;;;;;;55.28;39.97;;;;;;;16.35;71.38;100683.72;5014721;28;20127;-56
2021/06/08 07:58:25;;;;;;;48.40;37.67;;;;;;;16.36;71.33;100681.09;5015184;28;20065;-56
2021/06/08 08:01:00;;;;;;;53.45;39.03;;;;;;;16.39;71.36;100680.22;5013101;28;20042;-56
2021/06/08 08:03:31;;;;;;;48.33;37.78;;;;;;;16.41;71.39;100683.72;5014754;28;20524;-56
2021/06/08 08:06:00;;;;;;;51.47;37.85;;;;;;;16.42;71.48;100681.13;5014478;28;20121;-56
2021/06/08 08:08:28;;;;;;;46.67;37.55;;;;;;;16.45;71.33;100677.63;5014611;28;20042;-56
2021/06/08 08:11:00;;;;;;;53.45;38.75;;;;;;;16.48;71.48;100674.13;5013547;28;20042;-56
2021/06/08 08:13:31;;;;;;;51.25;37.20;;;;;;;16.50;71.27;100669.78;5014820;28;20042;-56
2021/06/08 08:16:06;;;;;;;45.83;35.85;;;;;;;16.51;71.06;100664.53;5013917;28;20053;-56
2021/06/08 08:18:34;;;;;;;50.78;36.95;;;;;;;16.53;71.12;100675.88;5013994;28;20048;-56
2021/06/08 08:21:00;;;;;;;51.35;36.95;;;;;;;16.54;71.18;100672.41;5014377;28;20065;-56
2021/06/08 08:23:29;;;;;;;47.03;36.17;;;;;;;16.57;71.31;100668.94;5013284;28;20030;-56
2021/06/08 08:25:55;;;;;;;48.00;35.08;;;;;;;16.58;71.21;100668.06;5014110;28;20034;-56
2021/06/08 08:28:21;;;;;;;48.15;34.45;;;;;;;16.60;71.29;100674.16;5014379;28;20104;-56
2021/06/08 08:30:47;;;;;;;42.92;33.97;;;;;;;16.61;71.01;100665.44;5014220;28;20536;-56
2021/06/08 08:33:12;;;;;;;41.30;31.45;;;;;;;16.62;70.88;100655.84;5014208;28;20415;-55
2021/06/08 08:35:40;;;;;;;43.83;30.63;;;;;;;16.65;71.16;100661.09;5014454;28;20076;-56
2021/06/08 08:38:13;;;;;;;43.08;32.15;;;;;;;16.66;70.86;100655.84;5014197;28;20493;-56
2021/06/08 08:40:39;;;;;;;41.15;29.52;;;;;;;16.68;70.94;100655.84;5014200;28;20062;-55
2021/06/08 08:43:07;;;;;;;42.35;30.20;;;;;;;16.69;70.92;100650.63;5014133;28;20084;-56
2021/06/08 08:45:35;;;;;;;36.55;28.60;;;;;;;16.72;70.69;100649.75;5013794;28;20077;-56
2021/06/08 08:48:01;;;;;;;38.10;28.05;;;;;;;16.71;70.79;100651.50;5014048;28;20065;-55
2021/06/08 08:50:32;;;;;;;35.25;26.70;;;;;;;16.73;70.68;100646.25;5013754;28;20124;-56
2021/06/08 08:53:04;;;;;;;34.33;26.55;;;;;;;16.73;70.65;100641.91;5013804;28;20397;-56
2021/06/08 08:55:35;;;;;;;33.03;24.58;;;;;;;16.75;70.76;100645.38;5013165;28;20129;-56
2021/06/08 08:58:06;;;;;;;30.83;24.20;;;;;;;16.77;70.66;100644.50;5012250;28;20037;-56
2021/06/08 09:00:32;;;;;;;28.80;22.05;;;;;;;16.78;70.26;100646.25;5014018;28;20034;-56
2021/06/08 09:03:01;;;;;;;27.05;20.83;;;;;;;16.77;70.45;100645.38;5012292;28;20049;-55
2021/06/08 09:05:27;;;;;;;27.65;20.23;;;;;;;16.77;70.26;100634.91;5012626;28;20397;-56
2021/06/08 09:07:53;;;;;;;22.75;18.55;;;;;;;16.78;70.20;100641.00;5013779;28;20081;-54
2021/06/08 09:10:25;;;;;;;22.00;16.20;;;;;;;16.78;70.26;100641.91;5012883;28;20042;-54
2021/06/08 09:12:54;;;;;;;22.85;17.27;;;;;;;16.80;69.84;100640.16;5014318;28;20049;-55
2021/06/08 09:15:23;;;;;;;20.52;15.02;;;;;;;16.82;70.05;100642.75;5012432;28;20389;-55
2021/06/08 09:17:53;;;;;;;20.35;15.82;;;;;;;16.84;69.97;100634.03;5013920;28;20041;-55
2021/06/08 09:20:23;;;;;;;25.30;17.17;;;;;;;16.88;70.02;100635.78;5013250;28;20172;-55
2021/06/08 09:23:04;;;;;;;22.17;17.30;;;;;;;16.90;69.86;100631.41;5013550;28;20402;-54
2021/06/08 09:25:36;;;;;;;22.27;15.85;;;;;;;16.94;70.01;100637.50;5013202;28;20117;-54
2021/06/08 09:28:19;;;;;;;18.95;15.35;;;;;;;16.95;69.79;100631.44;5013258;28;20049;-56
2021/06/08 09:30:45;;;;;;;23.88;15.82;;;;;;;16.98;69.75;100626.22;5013608;28;20030;-56
2021/06/08 09:33:23;;;;;;;23.42;16.65;;;;;;;17.00;69.74;100629.69;5012385;28;20046;-55
2021/06/08 09:36:00;;;;;;;22.88;16.25;;;;;;;17.03;69.77;100627.09;5013203;28;20510;-54
2021/06/08 09:38:42;;;;;;;22.33;15.57;;;;;;;17.05;69.50;100619.22;4996525;28;20103;-55
2021/06/08 09:41:11;;;;;;;21.58;15.63;;;;;;;17.08;69.24;100627.06;5012082;28;20527;-55
2021/06/08 09:43:57;;;;;;;21.85;16.10;;;;;;;17.10;69.48;100627.06;5013569;28;20041;-54
2021/06/08 09:46:47;;;;;;;20.83;15.50;;;;;;;17.11;69.22;100632.31;5005952;28;20042;-55
2021/06/08 09:49:39;;;;;;;20.40;16.08;;;;;;;17.15;69.32;100628.78;5013134;28;20034;-55
2021/06/08 09:52:11;;;;;;;21.02;15.95;;;;;;;17.17;69.10;100629.66;5012079;28;20073;-55
2021/06/08 09:54:50;;;;;;;22.95;16.50;;;;;;;17.18;69.29;100618.31;5013089;28;20070;-54
2021/06/08 09:57:19;;;;;;;22.90;16.13;;;;;;;17.19;69.03;100616.59;5012068;28;20060;-55
2021/06/08 09:59:47;;;;;;;27.23;17.20;;;;;;;17.20;69.11;100624.44;5012061;28;20046;-55
2021/06/08 10:02:32;;;;;;;20.90;17.13;;;;;;;17.21;69.17;100622.66;5013381;28;20050;-55
2021/06/08 10:05:24;;;;;;;21.10;16.73;;;;;;;17.24;69.06;100611.31;5012339;28;20133;-55
2021/06/08 10:08:10;;;;;;;22.80;16.20;;;;;;;17.26;68.92;100614.81;5016751;28;20181;-55
2021/06/08 10:10:45;;;;;;;26.65;16.63;;;;;;;17.28;68.52;100613.06;5016517;28;20468;-55
2021/06/08 10:13:14;;;;;;;19.88;15.65;;;;;;;17.32;68.59;100615.66;5016807;28;20489;-55
2021/06/08 10:16:02;;;;;;;20.98;16.40;;;;;;;17.34;68.84;100619.16;5015538;28;20057;-55
2021/06/08 10:18:45;;;;;;;21.40;15.52;;;;;;;17.39;68.66;100616.53;5016982;28;20045;-55
2021/06/08 10:21:16;;;;;;;18.95;14.75;;;;;;;17.43;68.54;100613.03;5016571;28;20037;-54
2021/06/08 10:23:44;;;;;;;21.42;15.65;;;;;;;17.46;68.53;100618.22;5016420;28;20034;-54
2021/06/08 10:26:14;;;;;;;19.45;15.93;;;;;;;17.49;68.49;100614.75;5015107;28;20037;-54
2021/06/08 10:28:42;;;;;;;19.45;15.20;;;;;;;17.52;68.53;100619.94;5016546;28;20038;-56
2021/06/08 10:31:14;;;;;;;22.50;15.57;;;;;;;17.53;68.19;100619.06;5015459;28;20092;-56
2021/06/08 10:33:44;;;;;;;21.40;15.93;;;;;;;17.54;68.29;100615.59;5015229;28;20493;-56
2021/06/08 10:36:13;;;;;;;24.83;16.20;;;;;;;17.57;68.39;100617.34;5016345;28;20037;-56
2021/06/08 10:38:41;;;;;;;21.90;16.95;;;;;;;17.59;68.34;100611.22;5016543;28;20042;-56
2021/06/08 10:41:10;;;;;;;22.13;17.05;;;;;;;17.62;68.30;100612.94;5016357;28;20034;-56
2021/06/08 10:43:40;;;;;;;22.92;16.77;;;;;;;17.64;68.27;100605.94;5015026;28;20037;-56
2021/06/08 10:46:36;;;;;;;22.33;17.02;;;;;;;17.67;68.38;100610.31;5016172;28;20034;-56
2021/06/08 10:49:06;;;;;;;20.42;15.73;;;;;;;17.69;68.08;100600.66;5015422;28;20046;-56
2021/06/08 10:51:36;;;;;;;22.75;17.42;;;;;;;17.72;68.01;100603.28;5016073;28;20037;-56
2021/06/08 10:54:17;;;;;;;23.02;16.67;;;;;;;17.71;68.09;100601.53;5014305;28;20073;-56
2021/06/08 10:56:59;;;;;;;21.80;15.48;;;;;;;17.73;68.08;100602.41;5015956;28;20066;-56
2021/06/08 10:59:38;;;;;;;21.60;16.52;;;;;;;17.76;68.08;100599.78;5015146;28;20037;-56
2021/06/08 11:02:05;;;;;;;19.63;16.60;;;;;;;17.77;68.06;100596.28;5016094;28;20053;-56
2021/06/08 11:04:54;;;;;;;23.15;15.98;;;;;;;17.76;68.06;100599.78;5015917;28;20033;-56
2021/06/08 11:07:53;;;;;;;18.45;14.93;;;;;;;17.75;67.96;100604.13;5015849;28;20495;-56
2021/06/08 11:10:26;;;;;;;22.40;14.20;;;;;;;17.75;68.02;100598.88;4994274;28;20414;-56
2021/06/08 11:13:07;;;;;;;14.80;12.52;;;;;;;17.77;67.82;100593.66;5015612;28;20037;-56
2021/06/08 11:15:55;;;;;;;17.80;12.52;;;;;;;17.79;68.05;100592.75;5014382;28;20513;-55
2021/06/08 11:18:29;;;;;;;17.15;11.77;;;;;;;17.81;67.70;100593.63;5013237;28;20536;-56
2021/06/08 11:21:00;;;;;;;15.88;12.52;;;;;;;17.81;67.63;100590.16;5014632;28;20034;-55
2021/06/08 11:23:43;;;;;;;16.83;12.30;;;;;;;17.85;67.59;100593.63;5014511;28;20034;-55
2021/06/08 11:26:14;;;;;;;15.43;11.95;;;;;;;17.90;67.63;100600.56;5015613;28;20165;-56
2021/06/08 11:28:54;;;;;;;14.73;12.10;;;;;;;17.93;67.38;100597.06;4997765;28;20103;-56